sensor_id;sensor_type;location;lat;lon;timestamp;P1;durP1;ratioP1;P2;durP2;ratioP2
47866;SDS011;33628;50.806;11.586;2022-08-18T00:01:47;8.52;;;5.15;;
47866;SDS011;33628;50.806;11.586;2022-08-18T00:04:16;10.48;;;5.20;;
47866;SDS011;33628;50.806;11.586;2022-08-18T00:06:43;10.05;;;5.53;;
47866;SDS011;33628;50.806;11.586;2022-08-18T00:09:09;7.32;;;5.68;;
47866;SDS011;33628;50.806;11.586;2022-08-18T00:11:37;7.50;;;5.88;;
47866;SDS011;33628;50.806;11.586;2022-08-18T00:14:06;11.45;;;5.88;;
47866;SDS011;33628;50.806;11.586;2022-08-18T00:16:35;11.52;;;5.93;;
47866;SDS011;33628;50.806;11.586;2022-08-18T00:19:03;8.68;;;6.15;;
47866;SDS011;33628;50.806;11.586;2022-08-18T00:21:31;8.55;;;6.03;;
47866;SDS011;33628;50.806;11.586;2022-08-18T00:23:57;8.18;;;5.85;;
47866;SDS011;33628;50.806;11.586;2022-08-18T00:26:23;9.68;;;5.95;;
47866;SDS011;33628;50.806;11.586;2022-08-18T00:28:50;11.90;;;6.55;;
47866;SDS011;33628;50.806;11.586;2022-08-18T00:31:16;9.23;;;5.80;;
47866;SDS011;33628;50.806;11.586;2022-08-18T00:33:42;9.65;;;5.88;;
47866;SDS011;33628;50.806;11.586;2022-08-18T00:36:08;11.23;;;5.10;;
47866;SDS011;33628;50.806;11.586;2022-08-18T00:38:37;8.38;;;5.88;;
47866;SDS011;33628;50.806;11.586;2022-08-18T00:41:04;7.15;;;5.72;;
47866;SDS011;33628;50.806;11.586;2022-08-18T00:43:31;7.68;;;6.80;;
47866;SDS011;33628;50.806;11.586;2022-08-18T00:45:59;11.35;;;5.97;;
47866;SDS011;33628;50.806;11.586;2022-08-18T00:48:25;9.13;;;6.57;;
47866;SDS011;33628;50.806;11.586;2022-08-18T00:50:53;9.80;;;6.25;;
47866;SDS011;33628;50.806;11.586;2022-08-18T00:53:22;13.57;;;6.22;;
47866;SDS011;33628;50.806;11.586;2022-08-18T00:55:53;9.48;;;5.97;;
47866;SDS011;33628;50.806;11.586;2022-08-18T00:58:21;9.05;;;6.28;;
47866;SDS011;33628;50.806;11.586;2022-08-18T01:00:51;10.00;;;6.03;;
47866;SDS011;33628;50.806;11.586;2022-08-18T01:03:20;8.52;;;6.03;;
47866;SDS011;33628;50.806;11.586;2022-08-18T01:05:49;8.15;;;6.32;;
47866;SDS011;33628;50.806;11.586;2022-08-18T01:08:19;7.43;;;5.53;;
47866;SDS011;33628;50.806;11.586;2022-08-18T01:10:46;7.63;;;6.18;;
47866;SDS011;33628;50.806;11.586;2022-08-18T01:13:14;8.50;;;6.18;;
47866;SDS011;33628;50.806;11.586;2022-08-18T01:15:40;10.52;;;6.57;;
47866;SDS011;33628;50.806;11.586;2022-08-18T01:18:09;9.35;;;6.07;;
47866;SDS011;33628;50.806;11.586;2022-08-18T01:20:56;9.10;;;5.63;;
47866;SDS011;33628;50.806;11.586;2022-08-18T01:23:45;7.53;;;5.80;;
47866;SDS011;33628;50.806;11.586;2022-08-18T01:26:12;8.85;;;5.95;;
47866;SDS011;33628;50.806;11.586;2022-08-18T01:28:40;9.80;;;6.35;;
47866;SDS011;33628;50.806;11.586;2022-08-18T01:31:07;8.00;;;6.00;;
47866;SDS011;33628;50.806;11.586;2022-08-18T01:33:35;8.98;;;6.35;;
47866;SDS011;33628;50.806;11.586;2022-08-18T01:36:11;7.20;;;5.90;;
47866;SDS011;33628;50.806;11.586;2022-08-18T01:38:40;12.80;;;6.78;;
47866;SDS011;33628;50.806;11.586;2022-08-18T01:41:08;9.85;;;6.90;;
47866;SDS011;33628;50.806;11.586;2022-08-18T01:43:35;7.25;;;6.53;;
47866;SDS011;33628;50.806;11.586;2022-08-18T01:46:02;11.45;;;7.05;;
47866;SDS011;33628;50.806;11.586;2022-08-18T01:48:30;10.00;;;6.60;;
47866;SDS011;33628;50.806;11.586;2022-08-18T01:50:58;8.10;;;6.80;;
47866;SDS011;33628;50.806;11.586;2022-08-18T01:53:24;9.88;;;6.80;;
47866;SDS011;33628;50.806;11.586;2022-08-18T01:55:51;10.23;;;7.20;;
47866;SDS011;33628;50.806;11.586;2022-08-18T01:58:21;11.18;;;7.43;;
47866;SDS011;33628;50.806;11.586;2022-08-18T02:00:52;10.52;;;7.10;;
47866;SDS011;33628;50.806;11.586;2022-08-18T02:03:19;11.23;;;6.85;;
47866;SDS011;33628;50.806;11.586;2022-08-18T02:05:46;8.57;;;7.60;;
47866;SDS011;33628;50.806;11.586;2022-08-18T02:08:14;10.65;;;7.28;;
47866;SDS011;33628;50.806;11.586;2022-08-18T02:10:40;10.27;;;7.03;;
47866;SDS011;33628;50.806;11.586;2022-08-18T02:13:07;10.43;;;7.50;;
47866;SDS011;33628;50.806;11.586;2022-08-18T02:15:34;8.15;;;7.00;;
47866;SDS011;33628;50.806;11.586;2022-08-18T02:18:01;8.88;;;7.47;;
47866;SDS011;33628;50.806;11.586;2022-08-18T02:20:27;9.48;;;6.93;;
47866;SDS011;33628;50.806;11.586;2022-08-18T02:22:53;11.40;;;7.40;;
47866;SDS011;33628;50.806;11.586;2022-08-18T02:25:19;10.23;;;7.25;;
47866;SDS011;33628;50.806;11.586;2022-08-18T02:27:45;9.00;;;7.22;;
47866;SDS011;33628;50.806;11.586;2022-08-18T02:30:12;11.93;;;7.55;;
47866;SDS011;33628;50.806;11.586;2022-08-18T02:32:41;8.60;;;7.13;;
47866;SDS011;33628;50.806;11.586;2022-08-18T02:35:08;13.52;;;7.30;;
47866;SDS011;33628;50.806;11.586;2022-08-18T02:37:35;9.02;;;6.70;;
47866;SDS011;33628;50.806;11.586;2022-08-18T02:40:02;9.82;;;6.93;;
47866;SDS011;33628;50.806;11.586;2022-08-18T02:42:28;9.60;;;7.05;;
47866;SDS011;33628;50.806;11.586;2022-08-18T02:44:56;12.00;;;6.85;;
47866;SDS011;33628;50.806;11.586;2022-08-18T02:47:22;9.73;;;7.45;;
47866;SDS011;33628;50.806;11.586;2022-08-18T02:49:49;8.55;;;7.15;;
47866;SDS011;33628;50.806;11.586;2022-08-18T02:52:16;9.00;;;6.97;;
47866;SDS011;33628;50.806;11.586;2022-08-18T02:54:42;8.60;;;7.40;;
47866;SDS011;33628;50.806;11.586;2022-08-18T02:57:08;10.80;;;7.65;;
47866;SDS011;33628;50.806;11.586;2022-08-18T02:59:35;12.27;;;6.88;;
47866;SDS011;33628;50.806;11.586;2022-08-18T03:02:03;9.70;;;7.53;;
47866;SDS011;33628;50.806;11.586;2022-08-18T03:04:30;8.63;;;7.55;;
47866;SDS011;33628;50.806;11.586;2022-08-18T03:06:59;13.05;;;8.18;;
47866;SDS011;33628;50.806;11.586;2022-08-18T03:09:28;10.68;;;7.40;;
47866;SDS011;33628;50.806;11.586;2022-08-18T03:11:54;10.23;;;7.30;;
47866;SDS011;33628;50.806;11.586;2022-08-18T03:14:21;10.13;;;7.13;;
47866;SDS011;33628;50.806;11.586;2022-08-18T03:16:47;10.20;;;7.18;;
47866;SDS011;33628;50.806;11.586;2022-08-18T03:19:13;8.93;;;7.47;;
47866;SDS011;33628;50.806;11.586;2022-08-18T03:21:40;11.68;;;8.13;;
47866;SDS011;33628;50.806;11.586;2022-08-18T03:24:09;9.45;;;7.43;;
47866;SDS011;33628;50.806;11.586;2022-08-18T03:26:38;10.30;;;7.60;;
47866;SDS011;33628;50.806;11.586;2022-08-18T03:29:06;8.73;;;7.18;;
47866;SDS011;33628;50.806;11.586;2022-08-18T03:31:32;10.00;;;7.38;;
47866;SDS011;33628;50.806;11.586;2022-08-18T03:34:01;10.52;;;7.85;;
47866;SDS011;33628;50.806;11.586;2022-08-18T03:36:29;9.45;;;7.45;;
47866;SDS011;33628;50.806;11.586;2022-08-18T03:38:58;11.18;;;7.63;;
47866;SDS011;33628;50.806;11.586;2022-08-18T03:41:28;10.07;;;7.65;;
47866;SDS011;33628;50.806;11.586;2022-08-18T03:43:54;12.23;;;7.85;;
47866;SDS011;33628;50.806;11.586;2022-08-18T03:46:21;9.60;;;7.18;;
47866;SDS011;33628;50.806;11.586;2022-08-18T03:48:48;9.82;;;7.47;;
47866;SDS011;33628;50.806;11.586;2022-08-18T03:51:15;10.70;;;6.80;;
47866;SDS011;33628;50.806;11.586;2022-08-18T03:53:43;11.55;;;7.43;;
47866;SDS011;33628;50.806;11.586;2022-08-18T03:56:10;9.02;;;7.82;;
47866;SDS011;33628;50.806;11.586;2022-08-18T03:58:41;8.95;;;7.28;;
47866;SDS011;33628;50.806;11.586;2022-08-18T04:01:10;11.25;;;7.75;;
47866;SDS011;33628;50.806;11.586;2022-08-18T04:03:40;9.35;;;7.25;;
47866;SDS011;33628;50.806;11.586;2022-08-18T04:06:06;10.18;;;8.10;;
47866;SDS011;33628;50.806;11.586;2022-08-18T04:08:32;13.25;;;7.53;;
47866;SDS011;33628;50.806;11.586;2022-08-18T04:10:58;10.02;;;7.43;;
47866;SDS011;33628;50.806;11.586;2022-08-18T04:13:25;12.70;;;8.32;;
47866;SDS011;33628;50.806;11.586;2022-08-18T04:15:52;11.30;;;7.63;;
47866;SDS011;33628;50.806;11.586;2022-08-18T04:18:18;11.32;;;7.53;;
47866;SDS011;33628;50.806;11.586;2022-08-18T04:20:44;13.68;;;7.97;;
47866;SDS011;33628;50.806;11.586;2022-08-18T04:23:11;11.93;;;7.70;;
47866;SDS011;33628;50.806;11.586;2022-08-18T04:25:40;13.65;;;8.20;;
47866;SDS011;33628;50.806;11.586;2022-08-18T04:28:06;10.73;;;7.97;;
47866;SDS011;33628;50.806;11.586;2022-08-18T04:30:32;8.80;;;7.85;;
47866;SDS011;33628;50.806;11.586;2022-08-18T04:33:01;12.93;;;8.73;;
47866;SDS011;33628;50.806;11.586;2022-08-18T04:35:29;9.77;;;8.73;;
47866;SDS011;33628;50.806;11.586;2022-08-18T04:37:55;9.57;;;7.72;;
47866;SDS011;33628;50.806;11.586;2022-08-18T04:40:22;12.73;;;8.07;;
47866;SDS011;33628;50.806;11.586;2022-08-18T04:42:48;9.27;;;8.27;;
47866;SDS011;33628;50.806;11.586;2022-08-18T04:45:14;11.32;;;8.20;;
47866;SDS011;33628;50.806;11.586;2022-08-18T04:47:41;12.38;;;7.72;;
47866;SDS011;33628;50.806;11.586;2022-08-18T04:50:09;12.85;;;8.52;;
47866;SDS011;33628;50.806;11.586;2022-08-18T04:52:36;12.40;;;8.18;;
47866;SDS011;33628;50.806;11.586;2022-08-18T04:55:20;11.07;;;7.70;;
47866;SDS011;33628;50.806;11.586;2022-08-18T04:57:46;12.40;;;8.25;;
47866;SDS011;33628;50.806;11.586;2022-08-18T05:00:13;11.90;;;8.20;;
47866;SDS011;33628;50.806;11.586;2022-08-18T05:02:39;10.85;;;7.97;;
47866;SDS011;33628;50.806;11.586;2022-08-18T05:05:06;20.05;;;9.30;;
47866;SDS011;33628;50.806;11.586;2022-08-18T05:07:35;14.02;;;8.45;;
47866;SDS011;33628;50.806;11.586;2022-08-18T05:10:01;12.57;;;8.60;;
47866;SDS011;33628;50.806;11.586;2022-08-18T05:12:28;11.63;;;8.07;;
47866;SDS011;33628;50.806;11.586;2022-08-18T05:14:54;14.05;;;8.57;;
47866;SDS011;33628;50.806;11.586;2022-08-18T05:17:23;10.00;;;7.88;;
47866;SDS011;33628;50.806;11.586;2022-08-18T05:19:52;14.48;;;8.75;;
47866;SDS011;33628;50.806;11.586;2022-08-18T05:22:20;13.60;;;9.25;;
47866;SDS011;33628;50.806;11.586;2022-08-18T05:24:46;14.05;;;9.88;;
47866;SDS011;33628;50.806;11.586;2022-08-18T05:27:13;13.68;;;8.60;;
47866;SDS011;33628;50.806;11.586;2022-08-18T05:29:39;11.05;;;8.68;;
47866;SDS011;33628;50.806;11.586;2022-08-18T05:32:05;9.43;;;7.80;;
47866;SDS011;33628;50.806;11.586;2022-08-18T05:34:32;9.80;;;8.80;;
47866;SDS011;33628;50.806;11.586;2022-08-18T05:37:01;12.55;;;8.68;;
47866;SDS011;33628;50.806;11.586;2022-08-18T05:39:37;11.23;;;8.63;;
47866;SDS011;33628;50.806;11.586;2022-08-18T05:42:10;12.38;;;8.30;;
47866;SDS011;33628;50.806;11.586;2022-08-18T05:44:39;9.73;;;7.93;;
47866;SDS011;33628;50.806;11.586;2022-08-18T05:47:09;10.95;;;8.30;;
47866;SDS011;33628;50.806;11.586;2022-08-18T05:49:38;11.80;;;8.30;;
47866;SDS011;33628;50.806;11.586;2022-08-18T05:52:05;13.85;;;9.05;;
47866;SDS011;33628;50.806;11.586;2022-08-18T05:54:35;13.85;;;9.35;;
47866;SDS011;33628;50.806;11.586;2022-08-18T05:57:25;13.25;;;9.05;;
47866;SDS011;33628;50.806;11.586;2022-08-18T05:59:54;13.30;;;8.65;;
47866;SDS011;33628;50.806;11.586;2022-08-18T06:02:31;12.85;;;9.13;;
47866;SDS011;33628;50.806;11.586;2022-08-18T06:05:02;12.10;;;8.88;;
47866;SDS011;33628;50.806;11.586;2022-08-18T06:07:31;12.02;;;8.75;;
47866;SDS011;33628;50.806;11.586;2022-08-18T06:10:02;14.07;;;9.35;;
47866;SDS011;33628;50.806;11.586;2022-08-18T06:12:33;9.25;;;8.00;;
47866;SDS011;33628;50.806;11.586;2022-08-18T06:15:02;10.88;;;8.55;;
47866;SDS011;33628;50.806;11.586;2022-08-18T06:17:45;12.35;;;8.50;;
47866;SDS011;33628;50.806;11.586;2022-08-18T06:21:07;11.05;;;8.88;;
47866;SDS011;33628;50.806;11.586;2022-08-18T06:23:41;10.13;;;9.07;;
47866;SDS011;33628;50.806;11.586;2022-08-18T06:26:17;15.00;;;8.90;;
47866;SDS011;33628;50.806;11.586;2022-08-18T06:28:50;21.35;;;9.25;;
47866;SDS011;33628;50.806;11.586;2022-08-18T06:31:37;16.27;;;9.30;;
47866;SDS011;33628;50.806;11.586;2022-08-18T06:34:09;19.00;;;8.52;;
47866;SDS011;33628;50.806;11.586;2022-08-18T06:36:43;17.02;;;9.23;;
47866;SDS011;33628;50.806;11.586;2022-08-18T06:39:16;10.88;;;8.43;;
47866;SDS011;33628;50.806;11.586;2022-08-18T06:41:47;22.77;;;9.98;;
47866;SDS011;33628;50.806;11.586;2022-08-18T06:44:19;15.85;;;9.18;;
47866;SDS011;33628;50.806;11.586;2022-08-18T06:46:55;37.63;;;11.77;;
47866;SDS011;33628;50.806;11.586;2022-08-18T06:49:36;31.53;;;11.83;;
47866;SDS011;33628;50.806;11.586;2022-08-18T06:52:21;44.80;;;13.45;;
47866;SDS011;33628;50.806;11.586;2022-08-18T06:54:50;37.97;;;13.23;;
47866;SDS011;33628;50.806;11.586;2022-08-18T06:57:27;50.70;;;13.55;;
47866;SDS011;33628;50.806;11.586;2022-08-18T07:00:00;32.55;;;12.43;;
47866;SDS011;33628;50.806;11.586;2022-08-18T07:02:37;34.13;;;11.98;;
47866;SDS011;33628;50.806;11.586;2022-08-18T07:05:15;21.23;;;9.40;;
47866;SDS011;33628;50.806;11.586;2022-08-18T07:07:59;27.95;;;10.63;;
47866;SDS011;33628;50.806;11.586;2022-08-18T07:10:40;23.83;;;12.23;;
47866;SDS011;33628;50.806;11.586;2022-08-18T07:13:15;11.93;;;9.32;;
47866;SDS011;33628;50.806;11.586;2022-08-18T07:15:49;21.33;;;10.10;;
47866;SDS011;33628;50.806;11.586;2022-08-18T07:18:21;22.85;;;8.70;;
47866;SDS011;33628;50.806;11.586;2022-08-18T07:20:50;18.65;;;9.20;;
47866;SDS011;33628;50.806;11.586;2022-08-18T07:23:29;22.27;;;8.73;;
47866;SDS011;33628;50.806;11.586;2022-08-18T07:26:02;13.18;;;8.68;;
47866;SDS011;33628;50.806;11.586;2022-08-18T07:28:33;10.30;;;8.48;;
47866;SDS011;33628;50.806;11.586;2022-08-18T07:31:07;15.80;;;7.85;;
47866;SDS011;33628;50.806;11.586;2022-08-18T07:33:50;11.25;;;8.15;;
47866;SDS011;33628;50.806;11.586;2022-08-18T07:36:20;12.82;;;8.77;;
47866;SDS011;33628;50.806;11.586;2022-08-18T07:38:50;10.82;;;9.15;;
47866;SDS011;33628;50.806;11.586;2022-08-18T07:41:18;11.32;;;9.05;;
47866;SDS011;33628;50.806;11.586;2022-08-18T07:43:52;12.85;;;8.77;;
47866;SDS011;33628;50.806;11.586;2022-08-18T07:46:26;14.18;;;9.70;;
47866;SDS011;33628;50.806;11.586;2022-08-18T07:48:56;15.93;;;10.13;;
47866;SDS011;33628;50.806;11.586;2022-08-18T07:51:24;13.48;;;9.48;;
47866;SDS011;33628;50.806;11.586;2022-08-18T07:53:58;14.45;;;11.10;;
47866;SDS011;33628;50.806;11.586;2022-08-18T07:56:29;11.50;;;10.00;;
47866;SDS011;33628;50.806;11.586;2022-08-18T07:59:03;16.02;;;11.30;;
47866;SDS011;33628;50.806;11.586;2022-08-18T08:01:32;13.52;;;10.50;;
47866;SDS011;33628;50.806;11.586;2022-08-18T08:04:02;12.73;;;9.80;;
47866;SDS011;33628;50.806;11.586;2022-08-18T08:06:36;15.57;;;10.80;;
47866;SDS011;33628;50.806;11.586;2022-08-18T08:09:05;16.45;;;10.98;;
47866;SDS011;33628;50.806;11.586;2022-08-18T08:11:38;17.20;;;11.05;;
47866;SDS011;33628;50.806;11.586;2022-08-18T08:14:13;16.17;;;11.93;;
47866;SDS011;33628;50.806;11.586;2022-08-18T08:16:45;13.40;;;10.75;;
47866;SDS011;33628;50.806;11.586;2022-08-18T08:19:23;26.45;;;9.90;;
47866;SDS011;33628;50.806;11.586;2022-08-18T08:21:54;12.82;;;9.88;;
47866;SDS011;33628;50.806;11.586;2022-08-18T08:24:24;18.27;;;11.13;;
47866;SDS011;33628;50.806;11.586;2022-08-18T08:26:56;22.52;;;11.57;;
47866;SDS011;33628;50.806;11.586;2022-08-18T08:29:31;17.25;;;10.38;;
47866;SDS011;33628;50.806;11.586;2022-08-18T08:32:01;20.60;;;11.13;;
47866;SDS011;33628;50.806;11.586;2022-08-18T08:34:30;17.95;;;11.18;;
47866;SDS011;33628;50.806;11.586;2022-08-18T08:36:59;16.90;;;11.63;;
47866;SDS011;33628;50.806;11.586;2022-08-18T08:39:30;13.77;;;11.02;;
47866;SDS011;33628;50.806;11.586;2022-08-18T08:42:04;13.75;;;11.85;;
47866;SDS011;33628;50.806;11.586;2022-08-18T08:44:34;12.98;;;11.20;;
47866;SDS011;33628;50.806;11.586;2022-08-18T08:47:08;16.92;;;12.45;;
47866;SDS011;33628;50.806;11.586;2022-08-18T08:49:36;14.68;;;11.95;;
47866;SDS011;33628;50.806;11.586;2022-08-18T08:52:06;17.35;;;12.13;;
47866;SDS011;33628;50.806;11.586;2022-08-18T08:54:37;13.68;;;12.27;;
47866;SDS011;33628;50.806;11.586;2022-08-18T08:57:05;14.98;;;12.98;;
47866;SDS011;33628;50.806;11.586;2022-08-18T08:59:34;13.73;;;11.65;;
47866;SDS011;33628;50.806;11.586;2022-08-18T09:02:07;14.30;;;12.65;;
47866;SDS011;33628;50.806;11.586;2022-08-18T09:04:40;17.20;;;12.90;;
47866;SDS011;33628;50.806;11.586;2022-08-18T09:07:17;14.30;;;12.05;;
47866;SDS011;33628;50.806;11.586;2022-08-18T09:09:52;17.08;;;13.10;;
47866;SDS011;33628;50.806;11.586;2022-08-18T09:15:14;15.45;;;13.23;;
47866;SDS011;33628;50.806;11.586;2022-08-18T09:17:57;25.27;;;14.05;;
47866;SDS011;33628;50.806;11.586;2022-08-18T09:20:32;15.88;;;12.77;;
47866;SDS011;33628;50.806;11.586;2022-08-18T09:23:03;15.60;;;11.80;;
47866;SDS011;33628;50.806;11.586;2022-08-18T09:25:32;13.65;;;12.05;;
47866;SDS011;33628;50.806;11.586;2022-08-18T09:28:11;14.55;;;13.15;;
47866;SDS011;33628;50.806;11.586;2022-08-18T09:30:45;17.30;;;13.15;;
47866;SDS011;33628;50.806;11.586;2022-08-18T09:33:18;15.27;;;13.73;;
47866;SDS011;33628;50.806;11.586;2022-08-18T09:38:49;20.25;;;15.88;;
47866;SDS011;33628;50.806;11.586;2022-08-18T09:41:39;19.77;;;14.73;;
47866;SDS011;33628;50.806;11.586;2022-08-18T09:44:11;19.10;;;13.55;;
47866;SDS011;33628;50.806;11.586;2022-08-18T09:46:50;17.60;;;13.98;;
47866;SDS011;33628;50.806;11.586;2022-08-18T09:58:48;19.85;;;16.50;;
47866;SDS011;33628;50.806;11.586;2022-08-18T10:01:33;19.05;;;15.93;;
47866;SDS011;33628;50.806;11.586;2022-08-18T10:04:17;27.35;;;21.85;;
47866;SDS011;33628;50.806;11.586;2022-08-18T10:06:54;19.27;;;15.63;;
47866;SDS011;33628;50.806;11.586;2022-08-18T10:09:41;19.27;;;15.55;;
47866;SDS011;33628;50.806;11.586;2022-08-18T10:12:15;18.77;;;15.88;;
47866;SDS011;33628;50.806;11.586;2022-08-18T10:15:16;23.90;;;16.58;;
47866;SDS011;33628;50.806;11.586;2022-08-18T10:17:55;18.63;;;15.95;;
47866;SDS011;33628;50.806;11.586;2022-08-18T10:20:36;22.63;;;17.13;;
47866;SDS011;33628;50.806;11.586;2022-08-18T10:23:06;21.55;;;17.92;;
47866;SDS011;33628;50.806;11.586;2022-08-18T10:25:35;20.55;;;17.92;;
47866;SDS011;33628;50.806;11.586;2022-08-18T10:28:03;21.58;;;17.08;;
47866;SDS011;33628;50.806;11.586;2022-08-18T10:30:44;20.77;;;18.35;;
47866;SDS011;33628;50.806;11.586;2022-08-18T10:36:45;25.90;;;21.65;;
47866;SDS011;33628;50.806;11.586;2022-08-18T10:39:14;22.53;;;19.57;;
47866;SDS011;33628;50.806;11.586;2022-08-18T10:41:53;24.13;;;20.65;;
47866;SDS011;33628;50.806;11.586;2022-08-18T10:44:23;22.10;;;19.80;;
47866;SDS011;33628;50.806;11.586;2022-08-18T10:46:51;24.20;;;19.33;;
47866;SDS011;33628;50.806;11.586;2022-08-18T10:49:19;27.08;;;19.48;;
47866;SDS011;33628;50.806;11.586;2022-08-18T10:54:51;21.98;;;19.67;;
47866;SDS011;33628;50.806;11.586;2022-08-18T10:57:43;24.20;;;19.98;;
47866;SDS011;33628;50.806;11.586;2022-08-18T11:00:24;23.97;;;21.23;;
47866;SDS011;33628;50.806;11.586;2022-08-18T11:03:03;22.60;;;20.30;;
47866;SDS011;33628;50.806;11.586;2022-08-18T11:05:36;25.70;;;22.30;;
47866;SDS011;33628;50.806;11.586;2022-08-18T11:08:13;31.05;;;23.38;;
47866;SDS011;33628;50.806;11.586;2022-08-18T11:11:04;30.05;;;25.00;;
47866;SDS011;33628;50.806;11.586;2022-08-18T11:13:46;29.02;;;23.20;;
47866;SDS011;33628;50.806;11.586;2022-08-18T11:16:24;30.50;;;23.73;;
47866;SDS011;33628;50.806;11.586;2022-08-18T11:19:13;25.45;;;22.55;;
47866;SDS011;33628;50.806;11.586;2022-08-18T11:21:47;28.42;;;22.48;;
47866;SDS011;33628;50.806;11.586;2022-08-18T11:24:25;27.02;;;24.17;;
47866;SDS011;33628;50.806;11.586;2022-08-18T11:27:16;30.88;;;24.42;;
47866;SDS011;33628;50.806;11.586;2022-08-18T11:29:51;45.15;;;24.30;;
47866;SDS011;33628;50.806;11.586;2022-08-18T11:32:51;30.00;;;24.90;;
47866;SDS011;33628;50.806;11.586;2022-08-18T11:35:24;27.98;;;23.30;;
47866;SDS011;33628;50.806;11.586;2022-08-18T11:38:10;29.05;;;24.10;;
47866;SDS011;33628;50.806;11.586;2022-08-18T11:40:52;32.00;;;24.30;;
47866;SDS011;33628;50.806;11.586;2022-08-18T11:43:45;28.15;;;25.17;;
47866;SDS011;33628;50.806;11.586;2022-08-18T11:49:56;33.60;;;26.10;;
47866;SDS011;33628;50.806;11.586;2022-08-18T11:55:27;32.22;;;26.58;;
47866;SDS011;33628;50.806;11.586;2022-08-18T11:58:00;30.45;;;25.08;;
47866;SDS011;33628;50.806;11.586;2022-08-18T12:00:37;31.23;;;26.15;;
47866;SDS011;33628;50.806;11.586;2022-08-18T12:03:21;28.67;;;25.15;;
47866;SDS011;33628;50.806;11.586;2022-08-18T12:05:55;33.03;;;25.83;;
47866;SDS011;33628;50.806;11.586;2022-08-18T12:08:25;27.45;;;24.10;;
47866;SDS011;33628;50.806;11.586;2022-08-18T12:11:02;29.90;;;25.75;;
47866;SDS011;33628;50.806;11.586;2022-08-18T12:13:31;28.00;;;24.55;;
47866;SDS011;33628;50.806;11.586;2022-08-18T12:16:07;29.80;;;24.98;;
47866;SDS011;33628;50.806;11.586;2022-08-18T12:18:35;31.38;;;24.95;;
47866;SDS011;33628;50.806;11.586;2022-08-18T12:21:01;29.13;;;24.63;;
47866;SDS011;33628;50.806;11.586;2022-08-18T12:23:27;38.10;;;26.75;;
47866;SDS011;33628;50.806;11.586;2022-08-18T12:25:54;34.78;;;25.73;;
47866;SDS011;33628;50.806;11.586;2022-08-18T12:28:20;35.50;;;28.25;;
47866;SDS011;33628;50.806;11.586;2022-08-18T12:30:48;33.40;;;27.92;;
47866;SDS011;33628;50.806;11.586;2022-08-18T12:33:14;36.63;;;28.33;;
47866;SDS011;33628;50.806;11.586;2022-08-18T12:35:40;32.30;;;25.88;;
47866;SDS011;33628;50.806;11.586;2022-08-18T12:38:09;34.22;;;27.38;;
47866;SDS011;33628;50.806;11.586;2022-08-18T12:40:36;35.47;;;26.48;;
47866;SDS011;33628;50.806;11.586;2022-08-18T12:43:02;31.33;;;27.13;;
47866;SDS011;33628;50.806;11.586;2022-08-18T12:45:28;32.78;;;25.83;;
47866;SDS011;33628;50.806;11.586;2022-08-18T12:47:59;37.33;;;27.50;;
47866;SDS011;33628;50.806;11.586;2022-08-18T12:50:27;31.98;;;27.60;;
47866;SDS011;33628;50.806;11.586;2022-08-18T12:52:53;31.65;;;27.05;;
47866;SDS011;33628;50.806;11.586;2022-08-18T12:55:19;32.03;;;26.88;;
47866;SDS011;33628;50.806;11.586;2022-08-18T12:57:45;31.40;;;26.63;;
47866;SDS011;33628;50.806;11.586;2022-08-18T13:00:12;34.05;;;28.58;;
47866;SDS011;33628;50.806;11.586;2022-08-18T13:02:39;32.08;;;28.60;;
47866;SDS011;33628;50.806;11.586;2022-08-18T13:05:07;32.90;;;27.55;;
47866;SDS011;33628;50.806;11.586;2022-08-18T13:07:34;34.95;;;29.23;;
47866;SDS011;33628;50.806;11.586;2022-08-18T13:10:00;36.65;;;29.17;;
47866;SDS011;33628;50.806;11.586;2022-08-18T13:12:26;38.70;;;29.73;;
47866;SDS011;33628;50.806;11.586;2022-08-18T13:14:52;33.40;;;28.05;;
47866;SDS011;33628;50.806;11.586;2022-08-18T13:17:19;31.95;;;27.70;;
47866;SDS011;33628;50.806;11.586;2022-08-18T13:19:45;37.00;;;27.95;;
47866;SDS011;33628;50.806;11.586;2022-08-18T13:22:13;30.02;;;26.30;;
47866;SDS011;33628;50.806;11.586;2022-08-18T13:24:40;32.13;;;26.67;;
47866;SDS011;33628;50.806;11.586;2022-08-18T13:27:06;37.17;;;24.98;;
47866;SDS011;33628;50.806;11.586;2022-08-18T13:29:33;28.88;;;25.77;;
47866;SDS011;33628;50.806;11.586;2022-08-18T13:31:59;34.85;;;25.17;;
47866;SDS011;33628;50.806;11.586;2022-08-18T13:34:28;27.08;;;23.25;;
47866;SDS011;33628;50.806;11.586;2022-08-18T13:36:55;23.85;;;20.50;;
47866;SDS011;33628;50.806;11.586;2022-08-18T13:39:23;25.15;;;19.33;;
47866;SDS011;33628;50.806;11.586;2022-08-18T13:41:50;22.30;;;20.00;;
47866;SDS011;33628;50.806;11.586;2022-08-18T13:44:18;22.90;;;19.85;;
47866;SDS011;33628;50.806;11.586;2022-08-18T13:46:45;22.70;;;18.05;;
47866;SDS011;33628;50.806;11.586;2022-08-18T13:49:12;25.45;;;18.90;;
47866;SDS011;33628;50.806;11.586;2022-08-18T13:51:39;22.10;;;19.80;;
47866;SDS011;33628;50.806;11.586;2022-08-18T13:54:07;30.65;;;21.27;;
47866;SDS011;33628;50.806;11.586;2022-08-18T13:56:35;24.42;;;21.92;;
47866;SDS011;33628;50.806;11.586;2022-08-18T13:59:01;23.60;;;21.15;;
47866;SDS011;33628;50.806;11.586;2022-08-18T14:01:29;27.58;;;19.30;;
47866;SDS011;33628;50.806;11.586;2022-08-18T14:03:56;29.42;;;20.45;;
47866;SDS011;33628;50.806;11.586;2022-08-18T14:06:22;30.02;;;19.88;;
47866;SDS011;33628;50.806;11.586;2022-08-18T14:08:49;27.27;;;19.65;;
47866;SDS011;33628;50.806;11.586;2022-08-18T14:11:16;29.58;;;19.77;;
47866;SDS011;33628;50.806;11.586;2022-08-18T14:13:44;25.73;;;19.67;;
47866;SDS011;33628;50.806;11.586;2022-08-18T14:16:11;23.88;;;18.58;;
47866;SDS011;33628;50.806;11.586;2022-08-18T14:18:37;20.70;;;17.70;;
47866;SDS011;33628;50.806;11.586;2022-08-18T14:21:03;22.75;;;16.83;;
47866;SDS011;33628;50.806;11.586;2022-08-18T14:23:49;18.75;;;15.32;;
47866;SDS011;33628;50.806;11.586;2022-08-18T14:26:34;18.98;;;15.35;;
47866;SDS011;33628;50.806;11.586;2022-08-18T14:29:16;21.15;;;15.48;;
47866;SDS011;33628;50.806;11.586;2022-08-18T14:31:43;24.02;;;16.00;;
47866;SDS011;33628;50.806;11.586;2022-08-18T14:34:09;16.75;;;14.50;;
47866;SDS011;33628;50.806;11.586;2022-08-18T14:36:35;18.98;;;14.43;;
47866;SDS011;33628;50.806;11.586;2022-08-18T14:39:02;22.55;;;15.38;;
47866;SDS011;33628;50.806;11.586;2022-08-18T14:41:28;20.02;;;12.63;;
47866;SDS011;33628;50.806;11.586;2022-08-18T14:43:54;17.40;;;14.23;;
47866;SDS011;33628;50.806;11.586;2022-08-18T14:46:23;12.50;;;11.00;;
47866;SDS011;33628;50.806;11.586;2022-08-18T14:48:50;14.10;;;10.38;;
47866;SDS011;33628;50.806;11.586;2022-08-18T14:51:16;14.38;;;10.10;;
47866;SDS011;33628;50.806;11.586;2022-08-18T14:53:42;12.77;;;9.65;;
47866;SDS011;33628;50.806;11.586;2022-08-18T14:56:08;14.95;;;10.35;;
47866;SDS011;33628;50.806;11.586;2022-08-18T14:58:36;14.10;;;11.55;;
47866;SDS011;33628;50.806;11.586;2022-08-18T15:01:05;15.82;;;11.77;;
47866;SDS011;33628;50.806;11.586;2022-08-18T15:03:34;13.18;;;10.68;;
47866;SDS011;33628;50.806;11.586;2022-08-18T15:06:02;14.77;;;11.63;;
47866;SDS011;33628;50.806;11.586;2022-08-18T15:08:29;15.60;;;11.63;;